Trinidad, Bolivia

4:23 PM BOT en Julio 24, 2016 (GMT -0400)
Jorge Henrich | | Change Station

Alt 509 ft 14.82 °S, 64.92 °W | Updated 23 minutes ago

Partly Cloudy
Parcialmente nublado
93 ° F
Sensación térmica 94 ° F
N
6
Viento Variable Viento desde NNO

Hoy
Alta -- | Baja -- ° F
--% Posibilidad de precipitaciones
Ayer
Alta -- | Baja -- ° F
Precip. -- pul
Presión 29.89 pul
Visibilidad 5.0 Millas
Nubes Baja 2000 ft
Índice de calor 94 ° F
Punto de rocío 63 ° F
Humedad 36%
Precipitaciones 0.00 pul
Espesor de la nieve No disponible.
6:44 AM 6:08 PM
Gibosa menguante, 73% visible
METAR SLTR 242000Z 34005KT 260V050 8000 FEW020 34/17 Q1012
Presión 29.89 pul
Visibilidad 5.0 Millas
Nubes Baja 2000 ft
Índice de calor 94 ° F
Punto de rocío 63 ° F
Humedad 36%
Precipitaciones 0.00 pul
Espesor de la nieve No disponible.
6:44 AM 6:08 PM
Gibosa menguante, 73% visible
METAR SLTR 242000Z 34005KT 260V050 8000 FEW020 34/17 Q1012

10-Day Weather Forecast

No radar image for this location.
×

Almanac

Astronomía

Jul. 24, 2016 Salida Puesta
Hora real
Crepúsculo civil
Crepúsculo náutico
Crepúsculo astronómico
Luna
Horas de luz
Horas de luz
Tomorrow will be .
, % of the Moon is Illuminated

Extremos de hoy

Máximos del país Bajas del país

Community

WunderPhotos

Upload Photos

1,927,181 ¡fotos cargadas!

WunderBlog® & News

Nearby

Calidad del aire

  Calidad del aire Índice AQ Contaminante
Not available.

Grosos de nieve

Estación Profundido Altura

Actividad de terremotos

Ciudad Distance Mag. Tiempo y dato
Magnitud mínima muestra es 2,5.

Temperaturas de aguas costeras

Lugar Temperatura

Stations

Estaciones meteorológicas cercanas

Ubicación de la estación Temp. Vientos helados Punto de rocío Humedad Viento Precip. Alt Actualizado Tipo